createdAt,value
2023-08-19T00:00:20.455Z,22.69
2023-08-19T00:02:47.646Z,22.73
2023-08-19T00:05:14.909Z,22.72
2023-08-19T00:07:42.058Z,22.65
2023-08-19T00:10:09.422Z,22.83
2023-08-19T00:12:36.842Z,22.74
2023-08-19T00:15:04.395Z,22.75
2023-08-19T00:17:31.911Z,22.64
2023-08-19T00:19:59.291Z,22.64
2023-08-19T00:22:26.403Z,22.55
2023-08-19T00:24:53.661Z,22.46
2023-08-19T00:27:21.028Z,22.35
2023-08-19T00:29:48.304Z,22.31
2023-08-19T00:32:16.543Z,22.26
2023-08-19T00:34:44.414Z,22.21
2023-08-19T00:37:11.785Z,22.20
2023-08-19T00:39:39.021Z,22.23
2023-08-19T00:42:08.038Z,22.18
2023-08-19T00:44:35.497Z,22.15
2023-08-19T00:47:03.197Z,22.27
2023-08-19T00:49:31.428Z,22.20
2023-08-19T00:51:59.812Z,22.16
2023-08-19T00:54:27.109Z,22.09
2023-08-19T00:56:54.466Z,22.02
2023-08-19T00:59:22.430Z,21.96
2023-08-19T01:01:49.655Z,21.90
2023-08-19T01:04:16.937Z,21.90
2023-08-19T01:07:25.478Z,21.88
2023-08-19T01:10:04.552Z,21.86
2023-08-19T01:12:43.884Z,21.96
2023-08-19T01:15:58.504Z,22.02
2023-08-19T01:18:28.138Z,21.95
2023-08-19T01:20:56.002Z,21.91
2023-08-19T01:23:38.959Z,21.84
2023-08-19T01:26:07.169Z,21.78
2023-08-19T01:28:34.361Z,21.76
2023-08-19T01:31:01.825Z,21.76
2023-08-19T01:33:32.984Z,21.80
2023-08-19T01:36:29.434Z,21.82
2023-08-19T01:39:02.829Z,21.98
2023-08-19T01:41:31.791Z,21.87
2023-08-19T01:44:01.198Z,21.75
2023-08-19T01:46:29.118Z,21.78
2023-08-19T01:48:56.495Z,21.76
2023-08-19T01:51:23.916Z,21.72
2023-08-19T01:53:51.340Z,21.65
2023-08-19T01:56:19.041Z,21.61
2023-08-19T01:58:46.493Z,21.63
2023-08-19T02:01:14.531Z,21.68
2023-08-19T02:03:41.830Z,21.76
2023-08-19T02:06:09.158Z,21.75
2023-08-19T02:08:36.510Z,21.71
2023-08-19T02:11:03.787Z,21.74
2023-08-19T02:13:31.239Z,21.80
2023-08-19T02:15:58.506Z,21.78
2023-08-19T02:18:26.747Z,21.76
2023-08-19T02:20:54.249Z,21.71
2023-08-19T02:23:21.388Z,21.63
2023-08-19T02:25:51.261Z,21.70
2023-08-19T02:28:18.436Z,21.55
2023-08-19T02:30:45.688Z,21.55
2023-08-19T02:33:12.996Z,21.47
2023-08-19T02:35:40.277Z,21.46
2023-08-19T02:38:08.446Z,21.29
2023-08-19T02:40:35.606Z,21.20
2023-08-19T02:43:03.800Z,21.02
2023-08-19T02:45:36.483Z,21.15
2023-08-19T02:48:04.343Z,21.33
2023-08-19T02:50:31.782Z,21.34
2023-08-19T02:52:59.163Z,21.43
2023-08-19T02:55:26.599Z,21.27
2023-08-19T02:57:53.989Z,21.25
2023-08-19T03:00:21.455Z,21.36
2023-08-19T03:02:49.260Z,21.23
2023-08-19T03:05:16.545Z,21.02
2023-08-19T03:07:43.784Z,20.97
2023-08-19T03:10:11.271Z,20.85
2023-08-19T03:12:38.638Z,20.78
2023-08-19T03:15:06.460Z,20.73
2023-08-19T03:17:33.934Z,20.74
2023-08-19T03:20:01.781Z,20.68
2023-08-19T03:22:30.060Z,20.46
2023-08-19T03:24:58.016Z,20.50
2023-08-19T03:27:25.497Z,20.32
2023-08-19T03:29:52.796Z,20.38
2023-08-19T03:32:20.157Z,20.33
2023-08-19T03:34:47.628Z,19.95
2023-08-19T03:37:15.011Z,19.99
2023-08-19T03:39:42.389Z,19.84
2023-08-19T03:42:09.647Z,19.84
2023-08-19T03:44:36.879Z,19.77
2023-08-19T03:47:04.909Z,19.78
2023-08-19T03:49:32.400Z,20.06
2023-08-19T03:51:59.779Z,19.93
2023-08-19T03:54:27.312Z,20.12
2023-08-19T03:56:54.656Z,20.34
2023-08-19T03:59:21.955Z,20.31
2023-08-19T04:01:49.283Z,20.31
2023-08-19T04:04:16.768Z,20.23
2023-08-19T04:06:44.059Z,20.05
2023-08-19T04:09:13.634Z,20.04
2023-08-19T04:11:40.912Z,20.25
2023-08-19T04:14:08.170Z,20.31
2023-08-19T04:16:38.425Z,20.45
2023-08-19T04:19:05.751Z,20.51
2023-08-19T04:21:33.245Z,20.56
2023-08-19T04:24:00.501Z,20.30
2023-08-19T04:26:27.660Z,20.09
2023-08-19T04:28:55.098Z,19.86
2023-08-19T04:31:23.607Z,19.86
2023-08-19T04:33:54.881Z,19.71
2023-08-19T04:36:23.118Z,19.61
2023-08-19T04:38:50.615Z,19.63
2023-08-19T04:41:18.786Z,19.62
2023-08-19T04:43:47.864Z,19.50
2023-08-19T04:46:16.746Z,19.56
2023-08-19T04:48:44.204Z,19.43
2023-08-19T04:51:11.525Z,19.36
2023-08-19T04:53:38.728Z,19.29
2023-08-19T04:56:06.082Z,19.46
2023-08-19T04:58:36.371Z,19.81
2023-08-19T05:01:04.162Z,19.99
2023-08-19T05:03:33.828Z,20.18
2023-08-19T05:06:01.634Z,20.14
2023-08-19T05:08:36.576Z,20.20
2023-08-19T05:11:04.121Z,20.32
2023-08-19T05:13:31.428Z,20.52
2023-08-19T05:16:01.982Z,20.68
2023-08-19T05:18:29.829Z,20.82
2023-08-19T05:20:57.050Z,20.88
2023-08-19T05:23:25.164Z,20.86
2023-08-19T05:25:52.652Z,20.91
2023-08-19T05:28:19.886Z,20.90
2023-08-19T05:30:47.084Z,20.96
2023-08-19T05:33:14.391Z,21.07
2023-08-19T05:35:41.726Z,21.08
2023-08-19T05:38:09.010Z,21.04
2023-08-19T05:40:36.341Z,21.10
2023-08-19T05:43:03.885Z,21.23
2023-08-19T05:45:34.298Z,21.39
2023-08-19T05:48:01.618Z,21.51
2023-08-19T05:50:28.940Z,21.49
2023-08-19T05:52:56.344Z,21.63
2023-08-19T05:55:23.577Z,21.69
2023-08-19T05:57:50.971Z,21.78
2023-08-19T06:00:18.179Z,21.82
2023-08-19T06:02:45.422Z,21.89
2023-08-19T06:05:12.733Z,21.89
2023-08-19T06:07:39.983Z,21.92
2023-08-19T06:10:07.471Z,22.06
2023-08-19T06:12:34.856Z,22.16
2023-08-19T06:15:02.041Z,22.22
2023-08-19T06:17:29.239Z,22.28
2023-08-19T06:19:56.483Z,22.33
2023-08-19T06:22:23.832Z,22.33
2023-08-19T06:24:50.992Z,22.35
2023-08-19T06:27:18.144Z,22.34
2023-08-19T06:29:45.379Z,22.43
2023-08-19T06:32:13.128Z,22.33
2023-08-19T06:34:41.639Z,22.40
2023-08-19T06:37:13.222Z,22.42
2023-08-19T06:39:46.576Z,22.77
2023-08-19T06:42:16.230Z,23.18
2023-08-19T06:44:44.731Z,23.56
2023-08-19T06:47:14.059Z,23.88
2023-08-19T06:49:41.436Z,24.22
2023-08-19T06:52:10.371Z,24.51
2023-08-19T06:54:37.824Z,24.70
2023-08-19T06:57:11.025Z,24.87
2023-08-19T06:59:40.091Z,25.11
2023-08-19T07:02:09.542Z,25.45
2023-08-19T07:04:37.247Z,25.76
2023-08-19T07:07:05.821Z,26.15
2023-08-19T07:09:35.200Z,26.50
2023-08-19T07:12:03.461Z,26.77
2023-08-19T07:14:30.960Z,26.85
2023-08-19T07:17:04.618Z,27.02
2023-08-19T07:19:38.351Z,27.21
2023-08-19T07:22:08.836Z,27.45
2023-08-19T07:24:36.561Z,27.66
2023-08-19T07:27:06.365Z,27.95
2023-08-19T07:29:36.237Z,28.22
2023-08-19T07:32:04.366Z,28.17
2023-08-19T07:34:31.722Z,28.22
2023-08-19T07:36:59.480Z,28.43
2023-08-19T07:39:27.988Z,28.33
2023-08-19T07:41:55.303Z,28.39
2023-08-19T07:44:22.771Z,28.42
2023-08-19T07:46:50.148Z,28.27
2023-08-19T07:49:17.379Z,28.66
2023-08-19T07:51:44.629Z,28.79
2023-08-19T07:54:11.965Z,28.70
2023-08-19T07:56:39.178Z,28.87
2023-08-19T07:59:06.580Z,29.24
2023-08-19T08:01:34.159Z,29.33
2023-08-19T08:04:01.637Z,29.57
2023-08-19T08:06:29.010Z,29.85
2023-08-19T08:08:56.328Z,29.95
2023-08-19T08:11:23.619Z,30.01
2023-08-19T08:13:50.821Z,29.97
2023-08-19T08:16:18.006Z,30.35
2023-08-19T08:18:45.230Z,30.44
2023-08-19T08:21:13.823Z,30.65
2023-08-19T08:23:41.778Z,30.76
2023-08-19T08:26:09.735Z,30.81
2023-08-19T08:28:37.685Z,30.84
2023-08-19T08:31:05.513Z,30.82
2023-08-19T08:33:32.825Z,30.76
2023-08-19T08:36:01.613Z,31.00
2023-08-19T08:38:28.854Z,30.98
2023-08-19T08:40:58.356Z,31.11
2023-08-19T08:43:26.133Z,31.30
2023-08-19T08:45:54.589Z,31.49
2023-08-19T08:48:23.333Z,31.65
2023-08-19T08:50:51.309Z,31.45
2023-08-19T08:53:19.358Z,31.53
2023-08-19T08:55:47.104Z,31.59
2023-08-19T08:58:14.474Z,31.65
2023-08-19T09:00:42.743Z,31.83
2023-08-19T09:03:11.404Z,31.74
2023-08-19T09:05:42.157Z,31.52
2023-08-19T09:08:14.832Z,31.72
2023-08-19T09:10:44.640Z,31.51
2023-08-19T09:13:15.344Z,31.43
2023-08-19T09:15:42.833Z,31.64
2023-08-19T09:18:11.046Z,31.93
2023-08-19T09:20:38.381Z,32.06
2023-08-19T09:23:11.093Z,32.22
2023-08-19T09:25:39.229Z,32.09
2023-08-19T09:28:07.158Z,32.27
2023-08-19T09:30:35.533Z,31.94
2023-08-19T09:33:03.756Z,31.67
2023-08-19T09:35:57.041Z,31.85
2023-08-19T09:38:26.890Z,32.05
2023-08-19T09:40:59.393Z,32.12
2023-08-19T09:43:27.432Z,32.11
2023-08-19T09:46:01.718Z,32.01
2023-08-19T09:48:28.979Z,32.00
2023-08-19T09:50:56.227Z,32.03
2023-08-19T09:53:23.553Z,31.80
2023-08-19T09:55:51.741Z,31.47
2023-08-19T09:58:18.980Z,31.54
2023-08-19T10:00:47.171Z,31.47
2023-08-19T10:03:16.291Z,31.65
2023-08-19T10:05:50.379Z,31.60
2023-08-19T10:08:24.371Z,31.76
2023-08-19T10:10:51.896Z,31.86
2023-08-19T10:13:23.018Z,32.09
2023-08-19T10:15:52.680Z,32.05
2023-08-19T10:18:26.473Z,31.98
2023-08-19T10:21:00.165Z,32.02
2023-08-19T10:23:29.164Z,31.93
2023-08-19T10:25:56.509Z,31.80
2023-08-19T10:28:26.257Z,31.59
2023-08-19T10:31:16.687Z,31.29
2023-08-19T10:34:00.094Z,31.09
2023-08-19T10:36:41.000Z,30.89
2023-08-19T10:39:18.285Z,30.73
2023-08-19T10:41:45.588Z,30.75
2023-08-19T10:44:14.157Z,30.59
2023-08-19T10:46:46.724Z,30.81
2023-08-19T10:49:24.828Z,30.56
2023-08-19T10:52:04.749Z,30.74
2023-08-19T10:54:40.047Z,30.73
2023-08-19T10:57:22.261Z,30.85
2023-08-19T10:59:57.563Z,30.85
2023-08-19T11:02:26.154Z,30.61
2023-08-19T11:04:54.645Z,30.69
2023-08-19T11:07:22.575Z,30.62
2023-08-19T11:09:51.332Z,30.67
2023-08-19T11:12:20.878Z,30.43
2023-08-19T11:14:49.820Z,30.45
2023-08-19T11:17:18.256Z,30.42
2023-08-19T11:19:47.392Z,30.17
2023-08-19T11:22:15.886Z,30.33
2023-08-19T11:24:43.179Z,30.34
2023-08-19T11:27:10.575Z,30.40
2023-08-19T11:29:41.576Z,30.55
2023-08-19T11:32:09.192Z,30.50
2023-08-19T11:34:36.418Z,30.65
2023-08-19T11:37:06.903Z,30.49
2023-08-19T11:39:34.553Z,30.69
2023-08-19T11:42:03.722Z,30.73
2023-08-19T11:44:32.437Z,30.70
2023-08-19T11:46:59.932Z,30.84
2023-08-19T11:49:31.039Z,30.96
2023-08-19T11:51:59.759Z,30.96
2023-08-19T11:54:27.733Z,30.98
2023-08-19T11:57:00.306Z,30.92
2023-08-19T11:59:35.287Z,30.88
2023-08-19T12:02:09.418Z,31.02
2023-08-19T12:04:36.960Z,31.08
2023-08-19T12:07:13.802Z,31.14
2023-08-19T12:09:41.384Z,31.07
2023-08-19T12:12:11.082Z,31.16
2023-08-19T12:14:40.495Z,31.20
2023-08-19T12:17:08.615Z,31.24
2023-08-19T12:19:36.528Z,31.38
2023-08-19T12:22:05.349Z,31.47
2023-08-19T12:24:33.383Z,31.57
2023-08-19T12:27:00.627Z,31.41
2023-08-19T12:29:29.649Z,31.42
2023-08-19T12:31:56.826Z,31.41
2023-08-19T12:34:24.064Z,31.32
2023-08-19T12:36:52.578Z,31.33
2023-08-19T12:39:21.111Z,31.21
2023-08-19T12:41:48.905Z,31.13
2023-08-19T12:44:16.357Z,31.12
2023-08-19T12:46:45.518Z,31.32
2023-08-19T12:49:13.879Z,31.54
2023-08-19T12:51:41.406Z,31.52
2023-08-19T12:54:10.208Z,31.53
2023-08-19T12:56:37.578Z,31.40
2023-08-19T12:59:05.013Z,31.51
2023-08-19T13:01:32.354Z,31.66
2023-08-19T13:03:59.636Z,31.62
2023-08-19T13:06:26.965Z,31.68
2023-08-19T13:08:54.902Z,31.72
2023-08-19T13:11:22.763Z,31.76
2023-08-19T13:13:50.047Z,31.85
2023-08-19T13:16:17.288Z,31.84
2023-08-19T13:18:44.559Z,31.92
2023-08-19T13:21:11.982Z,31.80
2023-08-19T13:23:42.383Z,31.75
2023-08-19T13:26:10.161Z,31.67
2023-08-19T13:28:37.389Z,31.67
2023-08-19T13:31:05.967Z,31.82
2023-08-19T13:33:33.452Z,32.07
2023-08-19T13:36:00.778Z,32.09
2023-08-19T13:38:28.093Z,32.12
2023-08-19T13:40:55.341Z,32.06
2023-08-19T13:43:22.750Z,31.90
2023-08-19T13:45:49.969Z,31.88
2023-08-19T13:48:17.400Z,31.93
2023-08-19T13:50:45.572Z,32.14
2023-08-19T13:53:13.042Z,32.19
2023-08-19T13:55:43.078Z,32.17
2023-08-19T13:58:11.124Z,32.26
2023-08-19T14:00:38.480Z,32.08
2023-08-19T14:03:05.770Z,31.92
2023-08-19T14:05:33.147Z,31.85
2023-08-19T14:08:01.192Z,31.96
2023-08-19T14:10:28.418Z,32.06
2023-08-19T14:12:55.628Z,32.15
2023-08-19T14:15:22.985Z,32.20
2023-08-19T14:17:50.594Z,32.03
2023-08-19T14:20:17.844Z,31.91
2023-08-19T14:22:45.007Z,32.12
2023-08-19T14:25:12.274Z,32.06
2023-08-19T14:27:40.083Z,32.12
2023-08-19T14:30:07.858Z,32.06
2023-08-19T14:32:35.318Z,32.05
2023-08-19T14:35:02.663Z,32.15
2023-08-19T14:37:30.032Z,32.15
2023-08-19T14:39:57.239Z,32.23
2023-08-19T14:42:24.455Z,32.06
2023-08-19T14:44:52.140Z,31.98
2023-08-19T14:47:19.591Z,31.87
2023-08-19T14:49:48.034Z,31.84
2023-08-19T14:52:19.065Z,31.90
2023-08-19T14:54:46.330Z,31.99
2023-08-19T14:57:13.565Z,31.97
2023-08-19T14:59:40.725Z,31.81
2023-08-19T15:02:09.049Z,31.62
2023-08-19T15:04:36.425Z,31.76
2023-08-19T15:07:03.959Z,31.72
2023-08-19T15:09:31.368Z,31.80
2023-08-19T15:12:01.276Z,31.84
2023-08-19T15:14:28.708Z,31.97
2023-08-19T15:16:55.948Z,31.97
2023-08-19T15:19:23.078Z,31.87
2023-08-19T15:21:50.301Z,31.85
2023-08-19T15:24:17.519Z,31.92
2023-08-19T15:26:44.764Z,31.97
2023-08-19T15:29:12.129Z,31.78
2023-08-19T15:31:39.335Z,31.64
2023-08-19T15:34:06.573Z,31.64
2023-08-19T15:36:33.812Z,31.74
2023-08-19T15:39:01.026Z,31.66
2023-08-19T15:41:29.655Z,31.69
2023-08-19T15:43:58.437Z,31.71
2023-08-19T15:46:25.689Z,31.72
2023-08-19T15:48:53.330Z,31.75
2023-08-19T15:51:20.513Z,31.75
2023-08-19T15:53:48.325Z,31.58
2023-08-19T15:56:15.534Z,31.52
2023-08-19T15:58:42.856Z,31.41
2023-08-19T16:01:10.527Z,31.25
2023-08-19T16:03:39.119Z,31.40
2023-08-19T16:06:06.304Z,31.27
2023-08-19T16:08:33.702Z,31.30
2023-08-19T16:11:05.841Z,31.36
2023-08-19T16:13:33.780Z,31.43
2023-08-19T16:16:01.693Z,31.57
2023-08-19T16:18:33.071Z,31.68
2023-08-19T16:21:00.822Z,31.67
2023-08-19T16:23:29.386Z,31.64
2023-08-19T16:25:56.820Z,31.69
2023-08-19T16:28:24.126Z,31.75
2023-08-19T16:30:51.727Z,31.60
2023-08-19T16:33:19.369Z,31.61
2023-08-19T16:35:46.793Z,31.67
2023-08-19T16:38:14.284Z,31.65
2023-08-19T16:40:41.626Z,31.52
2023-08-19T16:43:08.994Z,31.51
2023-08-19T16:45:36.210Z,31.52
2023-08-19T16:48:04.362Z,31.58
2023-08-19T16:50:31.562Z,31.50
2023-08-19T16:52:58.788Z,31.53
2023-08-19T16:55:26.061Z,31.51
2023-08-19T16:57:53.216Z,31.47
2023-08-19T17:00:23.950Z,31.53
2023-08-19T17:02:51.314Z,31.42
2023-08-19T17:05:18.637Z,31.47
2023-08-19T17:07:45.887Z,31.35
2023-08-19T17:10:13.105Z,31.25
2023-08-19T17:12:40.321Z,31.25
2023-08-19T17:15:07.882Z,31.05
2023-08-19T17:17:35.473Z,30.95
2023-08-19T17:20:04.843Z,30.92
2023-08-19T17:22:38.925Z,30.96
2023-08-19T17:25:06.642Z,30.86
2023-08-19T17:27:34.207Z,30.86
2023-08-19T17:30:01.668Z,30.84
2023-08-19T17:32:29.466Z,30.85
2023-08-19T17:34:56.679Z,30.74
2023-08-19T17:37:23.989Z,30.56
2023-08-19T17:39:51.404Z,30.33
2023-08-19T17:42:19.627Z,30.25
2023-08-19T17:44:54.313Z,30.13
2023-08-19T17:47:21.618Z,30.17
2023-08-19T17:49:49.039Z,30.08
2023-08-19T17:52:16.455Z,29.91
2023-08-19T17:54:43.958Z,29.84
2023-08-19T17:57:13.984Z,29.70
2023-08-19T17:59:41.362Z,29.52
2023-08-19T18:02:08.800Z,29.48
2023-08-19T18:04:36.182Z,29.40
2023-08-19T18:07:03.656Z,29.34
2023-08-19T18:09:30.961Z,29.32
2023-08-19T18:11:58.322Z,29.15
2023-08-19T18:14:25.615Z,29.09
2023-08-19T18:16:53.859Z,28.98
2023-08-19T18:19:35.903Z,28.93
2023-08-19T18:22:05.356Z,28.84
2023-08-19T18:24:35.268Z,28.72
2023-08-19T18:27:03.881Z,28.69
2023-08-19T18:29:31.736Z,28.52
2023-08-19T18:31:58.985Z,28.42
2023-08-19T18:34:26.333Z,28.41
2023-08-19T18:36:53.776Z,28.49
2023-08-19T18:39:21.047Z,28.39
2023-08-19T18:41:48.289Z,28.35
2023-08-19T18:44:16.276Z,28.26
2023-08-19T18:46:43.984Z,28.25
2023-08-19T18:49:11.700Z,28.20
2023-08-19T18:51:39.119Z,28.20
2023-08-19T18:54:06.816Z,28.20
2023-08-19T18:56:34.757Z,28.18
2023-08-19T18:59:02.956Z,28.05
2023-08-19T19:01:30.333Z,28.06
2023-08-19T19:03:59.197Z,28.05
2023-08-19T19:06:26.592Z,27.96
2023-08-19T19:08:58.986Z,27.94
2023-08-19T19:11:26.353Z,27.88
2023-08-19T19:13:53.512Z,27.87
2023-08-19T19:16:20.721Z,27.94
2023-08-19T19:18:47.918Z,27.75
2023-08-19T19:21:15.103Z,27.67
2023-08-19T19:23:42.276Z,27.73
2023-08-19T19:26:09.550Z,27.63
2023-08-19T19:28:36.777Z,27.53
2023-08-19T19:31:05.970Z,27.56
2023-08-19T19:33:33.379Z,27.58
2023-08-19T19:36:00.545Z,27.59
2023-08-19T19:38:27.629Z,27.48
2023-08-19T19:40:58.114Z,27.45
2023-08-19T19:43:25.365Z,27.53
2023-08-19T19:45:53.567Z,27.40
2023-08-19T19:48:20.756Z,27.41
2023-08-19T19:50:47.908Z,27.26
2023-08-19T19:53:15.457Z,27.33
2023-08-19T19:55:42.924Z,27.41
2023-08-19T19:58:10.115Z,27.24
2023-08-19T20:00:37.724Z,27.30
2023-08-19T20:03:05.132Z,27.13
2023-08-19T20:05:32.388Z,26.98
2023-08-19T20:07:59.537Z,26.93
2023-08-19T20:10:28.383Z,26.82
2023-08-19T20:12:56.466Z,26.80
2023-08-19T20:15:25.905Z,26.82
2023-08-19T20:17:54.572Z,26.81
2023-08-19T20:20:21.812Z,26.75
2023-08-19T20:22:49.815Z,26.73
2023-08-19T20:25:17.080Z,26.70
2023-08-19T20:27:44.558Z,26.67
2023-08-19T20:30:12.306Z,26.68
2023-08-19T20:32:39.699Z,26.79
2023-08-19T20:35:07.684Z,26.70
2023-08-19T20:37:35.264Z,26.63
2023-08-19T20:40:02.580Z,26.60
2023-08-19T20:42:29.904Z,26.66
2023-08-19T20:44:57.033Z,26.49
2023-08-19T20:47:24.312Z,26.46
2023-08-19T20:49:51.550Z,26.50
2023-08-19T20:52:18.859Z,26.48
2023-08-19T20:54:46.124Z,26.43
2023-08-19T20:57:13.451Z,26.39
2023-08-19T20:59:40.586Z,26.42
2023-08-19T21:02:07.898Z,26.27
2023-08-19T21:04:35.196Z,26.22
2023-08-19T21:07:02.364Z,26.29
2023-08-19T21:09:29.523Z,26.31
2023-08-19T21:11:56.750Z,26.21
2023-08-19T21:14:23.988Z,26.17
2023-08-19T21:16:51.142Z,26.15
2023-08-19T21:19:18.275Z,26.08
2023-08-19T21:21:45.835Z,26.11
2023-08-19T21:24:13.110Z,25.90
2023-08-19T21:26:40.252Z,25.91
2023-08-19T21:29:07.438Z,25.84
2023-08-19T21:31:34.610Z,25.84
2023-08-19T21:34:01.825Z,25.79
2023-08-19T21:36:29.107Z,25.79
2023-08-19T21:38:56.480Z,25.79
2023-08-19T21:41:23.745Z,25.77
2023-08-19T21:43:50.921Z,25.66
2023-08-19T21:46:18.073Z,25.75
2023-08-19T21:48:47.301Z,25.65
2023-08-19T21:51:14.792Z,25.71
2023-08-19T21:53:42.654Z,25.76
2023-08-19T21:56:10.062Z,25.72
2023-08-19T21:58:37.169Z,25.70
2023-08-19T22:01:04.808Z,25.69
2023-08-19T22:03:33.899Z,25.69
2023-08-19T22:06:04.494Z,25.60
2023-08-19T22:08:31.879Z,25.49
2023-08-19T22:11:00.393Z,25.53
2023-08-19T22:13:27.735Z,25.49
2023-08-19T22:15:54.991Z,25.55
2023-08-19T22:18:22.149Z,25.50
2023-08-19T22:20:51.639Z,25.42
2023-08-19T22:23:19.812Z,25.36
2023-08-19T22:25:47.069Z,25.27
2023-08-19T22:28:14.507Z,25.24
2023-08-19T22:30:41.880Z,25.23
2023-08-19T22:33:09.238Z,25.22
2023-08-19T22:35:36.752Z,25.26
2023-08-19T22:38:04.262Z,25.27
2023-08-19T22:40:31.526Z,25.33
2023-08-19T22:42:58.796Z,25.27
2023-08-19T22:45:26.006Z,25.20
2023-08-19T22:47:53.273Z,25.10
2023-08-19T22:50:20.583Z,25.08
2023-08-19T22:52:47.984Z,25.11
2023-08-19T22:55:15.230Z,25.14
2023-08-19T22:57:46.009Z,25.14
2023-08-19T23:00:13.554Z,25.16
2023-08-19T23:02:40.996Z,25.19
2023-08-19T23:05:08.782Z,25.20
2023-08-19T23:07:36.958Z,25.28
2023-08-19T23:10:05.202Z,25.26
2023-08-19T23:12:32.479Z,25.31
2023-08-19T23:14:59.714Z,25.28
2023-08-19T23:17:27.096Z,25.25
2023-08-19T23:19:54.419Z,25.23
2023-08-19T23:22:21.885Z,25.19
2023-08-19T23:24:49.029Z,25.13
2023-08-19T23:27:16.178Z,25.09
2023-08-19T23:29:43.517Z,25.06
2023-08-19T23:32:10.721Z,24.98
2023-08-19T23:34:38.043Z,24.97
2023-08-19T23:37:05.247Z,24.94
2023-08-19T23:39:32.495Z,24.83
2023-08-19T23:41:59.574Z,24.71
2023-08-19T23:44:26.823Z,24.64
2023-08-19T23:46:54.201Z,24.73
2023-08-19T23:49:21.721Z,24.76
2023-08-19T23:51:49.864Z,24.88
2023-08-19T23:54:17.301Z,24.90
2023-08-19T23:56:44.732Z,24.90
2023-08-19T23:59:12.138Z,24.86
